Flight Number: EUR1191 Duration: 3:00
Departure: Athens Int'l (LGAV) at 07:00 Distance: 1138 Nm
Arrival: Paris Charles-de-Gaulle (LFPG) at 10:00 Equipment: A330-200

Weather Information
Athens Eleftherios Venizelos International Airport, Greece (LGAV) 37-56N 023-56E Feb 19, 2018 - 02:20 AM EST / 2018.02.19 0720 UTC
Wind: from the NNE (020 degrees) at 5 MPH (4 KT) (direction variable):0
Visibility: greater than 7 mile(s):0
Sky conditions: mostly cloudy Temperature: 51 F (11 C) Dew Point: 41 F (5 C) Relative Humidity: 66% Pressure (altimeter): 29.97 in. Hg (1015 hPa)
ob: LGAV 190720Z 02004KT 340V050 9999 SCT030 BKN070 11/05 Q1015 NOSIG cycle: 7
Sunrise: 05:11 Sunset: 16:04 (UTC)

Paris-Aeroport Charles De Gaulle, France (LFPG) 49-01N 002-32E 109M Feb 19, 2018 - 02:30 AM EST / 2018.02.19 0730 UTC
Wind: from the SE (140 degrees) at 7 MPH (6 KT):0
Visibility: 4 mile(s):0
Sky conditions: mostly cloudy Temperature: 32 F (0 C)
Windchill: 24 F (-4 C):1 Dew Point: 30 F (-1 C) Relative Humidity: 92% Pressure (altimeter): 30.12 in. Hg (1020 hPa)
ob: LFPG 190730Z 14006KT 8000 SCT033 BKN036 00/M01 Q1020 NOSIG cycle: 7
Sunrise: 06:53 Sunset: 17:13 (UTC)

TAF:2018/02/19 06:21 TAF LFPG 190500Z 1906/2012 13006KT 7000 BKN035 BECMG 1913/1915 BKN012 BECMG 1915/1917 BKN007 TEMPO 1916/2005 4000 -RA BKN003 BKN004 PROB40 TEMPO 1919/1921 2500 RA BKN003 BECMG 2005/2007 BKN017 TX06/1914Z TN00/1906Z

Previous Pireps for this route
Date Aircraft Flight time Fuel used Landing rate On time
2013-10-25A330-2003.00263100No
2016-10-24A330-20003.1439805-150No
(pireps marked green are flown by you)

Route map